Time,TemperatureF,DewpointF,PressureIn,WindDirection,WindDirectionDegrees,WindSpeedMPH,WindSpeedGustMPH,Humidity,HourlyPrecipIn,Conditions,Clouds,dailyrainin,SolarRadiationWatts/m^2,SoftwareType,DateUTC
2013-02-22 00:00:00,38.9,38.9,30.21,West,274,0.0,0.0,100,0.00,,,0.00,0002,Weather View 32 v70,2013-02-22 08:00:00,
2013-02-22 00:05:00,38.9,38.9,30.21,WNW,297,0.0,0.0,100,0.00,,,0.00,0001,Weather View 32 v70,2013-02-22 08:05:00,
2013-02-22 00:15:00,38.7,38.7,30.22,South,184,0.0,0.0,100,0.00,,,0.00,0001,Weather View 32 v70,2013-02-22 08:15:00,
2013-02-22 00:20:00,38.6,38.6,30.22,WSW,252,0.0,0.0,100,0.00,,,0.00,0001,Weather View 32 v70,2013-02-22 08:20:00,
2013-02-22 00:25:00,38.7,38.7,30.22,WSW,252,0.0,0.0,100,0.00,,,0.00,0001,Weather View 32 v70,2013-02-22 08:25:00,
2013-02-22 00:35:00,38.7,38.7,30.22,South,184,0.0,0.0,100,0.00,,,0.00,0001,Weather View 32 v70,2013-02-22 08:35:00,
2013-02-22 00:40:00,38.8,38.8,30.22,South,184,0.0,0.0,100,0.00,,,0.00,0002,Weather View 32 v70,2013-02-22 08:40:00,
2013-02-22 00:45:00,38.8,38.8,30.22,West,274,0.0,0.0,100,0.00,,,0.00,0001,Weather View 32 v70,2013-02-22 08:45:00,
2013-02-22 00:50:00,38.7,38.7,30.22,South,184,0.0,0.0,100,0.00,,,0.00,0002,Weather View 32 v70,2013-02-22 08:50:00,
2013-02-22 01:00:00,38.4,38.4,30.22,SE,139,0.0,0.0,100,0.00,,,0.00,0002,Weather View 32 v70,2013-02-22 09:00:00,
2013-02-22 01:05:00,38.0,38.0,30.23,South,184,0.0,0.0,100,0.00,,,0.00,0001,Weather View 32 v70,2013-02-22 09:05:00,
2013-02-22 01:10:00,37.9,37.9,30.23,ESE,117,0.0,0.0,100,0.00,,,0.00,0002,Weather View 32 v70,2013-02-22 09:10:00,
2013-02-22 01:15:00,37.7,37.7,30.22,South,184,0.0,0.0,100,0.00,,,0.00,0001,Weather View 32 v70,2013-02-22 09:15:00,
2013-02-22 01:20:00,37.6,37.6,30.22,South,184,0.0,0.0,100,0.00,,,0.00,0001,Weather View 32 v70,2013-02-22 09:20:00,
2013-02-22 01:30:00,37.5,37.5,30.22,SSE,162,0.0,0.0,100,0.00,,,0.00,0001,Weather View 32 v70,2013-02-22 09:30:00,
2013-02-22 01:35:00,37.3,37.3,30.23,SSE,162,0.0,0.0,100,0.00,,,0.00,0001,Weather View 32 v70,2013-02-22 09:35:00,
2013-02-22 01:40:00,37.1,37.1,30.22,SSE,162,0.0,0.0,100,0.00,,,0.00,0001,Weather View 32 v70,2013-02-22 09:40:00,
2013-02-22 01:50:00,37.2,37.2,30.23,WNW,297,0.0,0.0,100,0.00,,,0.00,0001,Weather View 32 v70,2013-02-22 09:50:00,
2013-02-22 01:55:00,37.1,37.1,30.23,NNW,342,0.0,0.0,100,0.00,,,0.00,0002,Weather View 32 v70,2013-02-22 09:55:00,
2013-02-22 02:05:00,36.9,36.9,30.23,SSW,207,0.0,0.0,100,0.00,,,0.00,0001,Weather View 32 v70,2013-02-22 10:05:00,
2013-02-22 02:15:00,36.7,36.7,30.23,SW,229,0.0,0.0,100,0.00,,,0.00,0001,Weather View 32 v70,2013-02-22 10:15:00,
2013-02-22 02:20:00,36.7,36.7,30.24,SSE,162,0.0,0.0,100,0.00,,,0.00,0001,Weather View 32 v70,2013-02-22 10:20:00,
2013-02-22 02:25:00,36.6,36.6,30.23,SSW,207,0.0,0.0,100,0.00,,,0.00,0001,Weather View 32 v70,2013-02-22 10:25:00,
2013-02-22 02:30:00,36.7,36.7,30.23,SSW,207,0.0,0.0,100,0.00,,,0.00,0001,Weather View 32 v70,2013-02-22 10:30:00,
2013-02-22 02:40:00,36.7,36.7,30.23,SSE,162,0.0,0.0,100,0.00,,,0.00,0002,Weather View 32 v70,2013-02-22 10:40:00,
2013-02-22 02:45:00,36.4,36.4,30.23,SSE,162,0.0,0.0,100,0.00,,,0.00,0001,Weather View 32 v70,2013-02-22 10:45:00,
2013-02-22 02:50:00,36.2,36.2,30.22,SSW,207,0.0,0.0,100,0.00,,,0.00,0001,Weather View 32 v70,2013-02-22 10:50:00,
2013-02-22 02:55:00,36.3,36.3,30.22,SSW,207,0.0,0.0,100,0.00,,,0.00,0001,Weather View 32 v70,2013-02-22 10:55:00,
2013-02-22 03:05:00,36.4,36.4,30.22,SSW,207,0.0,0.0,100,0.00,,,0.00,0001,Weather View 32 v70,2013-02-22 11:05:00,
2013-02-22 03:10:00,36.3,36.3,30.23,SE,139,0.0,0.0,100,0.00,,,0.00,0001,Weather View 32 v70,2013-02-22 11:10:00,
2013-02-22 03:15:00,36.2,36.2,30.23,SSE,162,0.0,0.0,100,0.00,,,0.00,0001,Weather View 32 v70,2013-02-22 11:15:00,
2013-02-22 03:20:00,36.1,36.1,30.23,SSW,207,0.0,0.0,100,0.00,,,0.00,0001,Weather View 32 v70,2013-02-22 11:20:00,
2013-02-22 03:30:00,36.1,36.1,30.23,SSW,207,0.0,0.0,100,0.00,,,0.00,0001,Weather View 32 v70,2013-02-22 11:30:00,
2013-02-22 03:40:00,35.9,35.9,30.24,South,184,0.0,0.0,100,0.00,,,0.00,0001,Weather View 32 v70,2013-02-22 11:40:00,
2013-02-22 03:45:00,36.0,36.0,30.24,South,184,0.0,0.0,100,0.00,,,0.00,0001,Weather View 32 v70,2013-02-22 11:45:00,
2013-02-22 03:55:00,36.2,36.2,30.23,SSW,207,0.0,0.0,100,0.00,,,0.00,0001,Weather View 32 v70,2013-02-22 11:55:00,
2013-02-22 04:00:00,36.1,36.1,30.23,SSW,207,0.0,0.0,100,0.00,,,0.00,0001,Weather View 32 v70,2013-02-22 12:00:00,
2013-02-22 04:05:00,35.9,35.9,30.23,SSW,207,0.0,0.0,100,0.00,,,0.00,0001,Weather View 32 v70,2013-02-22 12:05:00,
2013-02-22 04:10:00,35.7,35.7,30.24,SSW,207,0.0,0.0,100,0.00,,,0.00,0001,Weather View 32 v70,2013-02-22 12:10:00,
2013-02-22 04:15:00,35.6,35.6,30.23,SSW,207,0.0,0.0,100,0.00,,,0.00,0001,Weather View 32 v70,2013-02-22 12:15:00,
2013-02-22 04:24:00,35.4,35.4,30.24,SSE,162,0.0,0.0,100,0.00,,,0.00,0001,Weather View 32 v70,2013-02-22 12:24:00,
2013-02-22 04:30:00,35.3,35.3,30.24,North,4,0.0,0.0,100,0.00,,,0.00,0001,Weather View 32 v70,2013-02-22 12:30:00,
2013-02-22 04:35:00,35.4,35.4,30.23,WNW,297,0.0,0.0,100,0.00,,,0.00,0001,Weather View 32 v70,2013-02-22 12:35:00,
2013-02-22 04:45:00,35.4,35.4,30.24,SW,229,0.0,0.0,100,0.00,,,0.00,0001,Weather View 32 v70,2013-02-22 12:45:00,
2013-02-22 04:50:00,35.2,35.2,30.24,SW,229,0.0,0.0,100,0.00,,,0.00,0001,Weather View 32 v70,2013-02-22 12:50:00,
2013-02-22 04:55:00,35.5,35.5,30.24,South,184,0.0,0.0,100,0.00,,,0.00,0001,Weather View 32 v70,2013-02-22 12:55:00,
2013-02-22 05:05:00,34.9,34.9,30.24,SE,139,0.0,0.0,100,0.00,,,0.00,0001,Weather View 32 v70,2013-02-22 13:05:00,
2013-02-22 05:10:00,35.3,35.3,30.24,South,184,0.0,0.0,100,0.00,,,0.00,0001,Weather View 32 v70,2013-02-22 13:10:00,
2013-02-22 05:15:00,35.5,35.5,30.24,West,274,0.0,0.0,100,0.00,,,0.00,0001,Weather View 32 v70,2013-02-22 13:15:00,
2013-02-22 05:20:00,35.6,35.6,30.24,NW,319,0.0,0.0,100,0.00,,,0.00,0001,Weather View 32 v70,2013-02-22 13:20:00,
2013-02-22 05:25:00,35.3,35.3,30.24,SE,139,0.0,0.0,100,0.00,,,0.00,0002,Weather View 32 v70,2013-02-22 13:25:00,
2013-02-22 05:35:00,35.2,35.2,30.25,NNW,342,0.0,0.0,100,0.00,,,0.00,0001,Weather View 32 v70,2013-02-22 13:35:00,
2013-02-22 05:40:00,34.9,34.9,30.24,SE,139,0.0,0.0,100,0.00,,,0.00,0002,Weather View 32 v70,2013-02-22 13:40:00,
2013-02-22 05:45:00,34.7,34.7,30.25,South,184,0.0,0.0,100,0.00,,,0.00,0002,Weather View 32 v70,2013-02-22 13:45:00,
2013-02-22 05:55:00,34.7,34.7,30.26,South,184,0.0,0.0,100,0.00,,,0.00,0001,Weather View 32 v70,2013-02-22 13:55:00,
2013-02-22 06:00:00,34.7,34.7,30.26,South,184,0.0,0.0,100,0.00,,,0.00,0002,Weather View 32 v70,2013-02-22 14:00:00,
2013-02-22 06:05:00,34.8,34.8,30.26,SW,229,0.0,0.0,100,0.00,,,0.00,0002,Weather View 32 v70,2013-02-22 14:05:00,
2013-02-22 06:10:00,35.0,35.0,30.25,SE,139,0.0,0.0,100,0.00,,,0.00,0002,Weather View 32 v70,2013-02-22 14:10:00,
2013-02-22 06:20:00,34.7,34.7,30.26,ESE,117,0.0,0.0,100,0.00,,,0.00,0001,Weather View 32 v70,2013-02-22 14:20:00,
2013-02-22 06:25:00,34.7,34.7,30.26,South,184,0.0,0.0,100,0.00,,,0.00,0002,Weather View 32 v70,2013-02-22 14:25:00,
2013-02-22 06:30:00,34.6,34.6,30.26,ESE,117,0.0,0.0,100,0.00,,,0.00,0002,Weather View 32 v70,2013-02-22 14:30:00,
2013-02-22 06:35:00,34.6,34.6,30.26,South,184,0.0,0.0,100,0.00,,,0.00,0002,Weather View 32 v70,2013-02-22 14:35:00,
2013-02-22 06:45:00,34.7,34.7,30.27,SW,229,0.0,0.0,100,0.00,,,0.00,0004,Weather View 32 v70,2013-02-22 14:45:00,
2013-02-22 06:50:00,34.7,34.7,30.27,NW,319,0.0,0.0,100,0.00,,,0.00,0007,Weather View 32 v70,2013-02-22 14:50:00,
2013-02-22 06:55:00,34.8,34.8,30.27,SSW,207,0.0,0.0,100,0.00,,,0.00,0012,Weather View 32 v70,2013-02-22 14:55:00,
2013-02-22 07:00:00,34.7,34.7,30.27,South,184,0.0,0.0,100,0.00,,,0.00,0026,Weather View 32 v70,2013-02-22 15:00:00,
2013-02-22 07:05:00,34.8,34.8,30.27,WNW,297,0.0,0.0,100,0.00,,,0.00,0042,Weather View 32 v70,2013-02-22 15:05:00,
2013-02-22 07:15:00,35.3,35.3,30.28,SSE,162,0.0,0.0,100,0.00,,,0.00,0076,Weather View 32 v70,2013-02-22 15:15:00,
2013-02-22 07:20:00,35.6,35.6,30.28,SSW,207,0.0,0.0,100,0.00,,,0.00,0093,Weather View 32 v70,2013-02-22 15:20:00,
2013-02-22 07:25:00,35.9,35.9,30.28,South,184,0.0,0.0,100,0.00,,,0.00,0106,Weather View 32 v70,2013-02-22 15:25:00,
2013-02-22 07:35:00,37.0,37.0,30.29,SE,139,0.0,0.0,100,0.00,,,0.00,0130,Weather View 32 v70,2013-02-22 15:35:00,
2013-02-22 07:40:00,37.3,37.3,30.30,ESE,117,0.0,0.0,100,0.00,,,0.00,0141,Weather View 32 v70,2013-02-22 15:40:00,
2013-02-22 07:45:00,37.7,37.7,30.30,SE,139,0.0,0.0,100,0.00,,,0.00,0161,Weather View 32 v70,2013-02-22 15:45:00,
2013-02-22 07:55:00,37.9,37.9,30.29,ESE,117,3.0,4.0,100,0.00,,,0.00,0192,Weather View 32 v70,2013-02-22 15:55:00,
2013-02-22 08:00:00,38.0,38.0,30.29,SE,139,2.0,4.0,100,0.00,,,0.00,0205,Weather View 32 v70,2013-02-22 16:00:00,
2013-02-22 08:05:00,38.8,38.8,30.29,ESE,117,1.0,4.0,100,0.00,,,0.00,0219,Weather View 32 v70,2013-02-22 16:05:00,
2013-02-22 08:10:00,39.4,39.4,30.29,ESE,117,0.0,4.0,100,0.00,,,0.00,0238,Weather View 32 v70,2013-02-22 16:10:00,
2013-02-22 08:15:00,39.9,39.9,30.29,SE,139,0.0,4.0,100,0.00,,,0.00,0251,Weather View 32 v70,2013-02-22 16:15:00,
2013-02-22 08:25:00,41.0,41.0,30.30,South,184,1.0,4.0,100,0.00,,,0.00,0275,Weather View 32 v70,2013-02-22 16:25:00,
2013-02-22 08:30:00,41.3,41.3,30.29,ESE,117,2.0,4.0,100,0.00,,,0.00,0286,Weather View 32 v70,2013-02-22 16:30:00,
2013-02-22 08:35:00,41.1,41.1,30.29,ESE,117,3.0,4.0,100,0.00,,,0.00,0300,Weather View 32 v70,2013-02-22 16:35:00,
2013-02-22 08:40:00,41.6,41.6,30.29,ESE,117,1.0,4.0,100,0.00,,,0.00,0311,Weather View 32 v70,2013-02-22 16:40:00,
2013-02-22 08:50:00,42.3,42.3,30.29,ESE,117,1.0,4.0,100,0.00,,,0.00,0335,Weather View 32 v70,2013-02-22 16:50:00,
2013-02-22 08:55:00,43.1,43.1,30.29,South,184,0.0,4.0,100,0.00,,,0.00,0347,Weather View 32 v70,2013-02-22 16:55:00,
2013-02-22 09:00:00,43.9,43.9,30.29,SSE,162,0.0,4.0,100,0.00,,,0.00,0360,Weather View 32 v70,2013-02-22 17:00:00,
2013-02-22 09:10:00,45.3,45.3,30.29,NW,319,1.0,4.0,100,0.00,,,0.00,0383,Weather View 32 v70,2013-02-22 17:10:00,
2013-02-22 09:15:00,45.1,45.1,30.29,ENE,72,1.0,4.0,100,0.00,,,0.00,0384,Weather View 32 v70,2013-02-22 17:15:00,
2013-02-22 09:20:00,45.8,45.8,30.28,East,94,1.0,4.0,100,0.00,,,0.00,0402,Weather View 32 v70,2013-02-22 17:20:00,
2013-02-22 09:25:00,45.7,45.7,30.29,NNE,27,3.0,4.0,100,0.00,,,0.00,0408,Weather View 32 v70,2013-02-22 17:25:00,
2013-02-22 09:35:00,46.3,46.3,30.29,WSW,252,1.0,4.0,100,0.00,,,0.00,0418,Weather View 32 v70,2013-02-22 17:35:00,
2013-02-22 09:40:00,46.4,46.4,30.28,WNW,297,1.0,4.0,100,0.00,,,0.00,0431,Weather View 32 v70,2013-02-22 17:40:00,
2013-02-22 09:45:00,46.6,46.6,30.29,NW,319,4.0,5.0,100,0.00,,,0.00,0428,Weather View 32 v70,2013-02-22 17:45:00,
2013-02-22 09:50:00,47.2,47.2,30.29,North,4,2.0,5.0,100,0.00,,,0.00,0433,Weather View 32 v70,2013-02-22 17:50:00,
2013-02-22 10:00:00,48.6,48.6,30.29,NW,319,3.0,6.0,100,0.00,,,0.00,0454,Weather View 32 v70,2013-02-22 18:00:00,
2013-02-22 10:05:00,48.7,48.4,30.29,NW,319,3.0,6.0,99,0.00,,,0.00,0465,Weather View 32 v70,2013-02-22 18:05:00,
2013-02-22 10:10:00,49.2,48.1,30.29,NE,49,4.0,6.0,96,0.00,,,0.00,0483,Weather View 32 v70,2013-02-22 18:10:00,
2013-02-22 10:15:00,49.8,48.7,30.29,ENE,72,1.0,6.0,96,0.00,,,0.00,0488,Weather View 32 v70,2013-02-22 18:15:00,
2013-02-22 10:20:00,50.3,48.9,30.29,North,4,3.0,6.0,95,0.00,,,0.00,0498,Weather View 32 v70,2013-02-22 18:20:00,
2013-02-22 10:25:00,51.6,49.9,30.29,ESE,117,0.0,6.0,94,0.00,,,0.00,0517,Weather View 32 v70,2013-02-22 18:25:00,
2013-02-22 10:35:00,52.8,50.2,30.29,ESE,117,3.0,6.0,91,0.00,,,0.00,0527,Weather View 32 v70,2013-02-22 18:35:00,
2013-02-22 10:40:00,53.2,50.0,30.29,ESE,117,1.0,6.0,89,0.00,,,0.00,0545,Weather View 32 v70,2013-02-22 18:40:00,
2013-02-22 10:45:00,53.5,49.4,30.29,NE,49,2.0,6.0,86,0.00,,,0.00,0520,Weather View 32 v70,2013-02-22 18:45:00,
2013-02-22 10:55:00,55.3,50.2,30.29,SE,139,1.0,6.0,83,0.00,,,0.00,0557,Weather View 32 v70,2013-02-22 18:55:00,
2013-02-22 11:00:00,55.8,49.4,30.29,SSE,162,1.0,6.0,79,0.00,,,0.00,0549,Weather View 32 v70,2013-02-22 19:00:00,
2013-02-22 11:05:00,55.9,48.1,30.29,ESE,117,1.0,6.0,75,0.00,,,0.00,0556,Weather View 32 v70,2013-02-22 19:05:00,
2013-02-22 11:10:00,56.4,47.5,30.29,SE,139,2.0,6.0,72,0.00,,,0.00,0582,Weather View 32 v70,2013-02-22 19:10:00,
2013-02-22 11:20:00,57.2,45.9,30.28,ESE,117,0.0,6.0,66,0.00,,,0.00,0588,Weather View 32 v70,2013-02-22 19:20:00,
2013-02-22 11:25:00,57.6,45.9,30.28,SE,139,0.0,6.0,65,0.00,,,0.00,0589,Weather View 32 v70,2013-02-22 19:25:00,
2013-02-22 11:30:00,58.9,47.1,30.28,SE,139,2.0,6.0,65,0.00,,,0.00,0596,Weather View 32 v70,2013-02-22 19:30:00,
2013-02-22 11:35:00,58.2,44.8,30.28,NNE,27,1.0,6.0,61,0.00,,,0.00,0602,Weather View 32 v70,2013-02-22 19:35:00,
2013-02-22 11:45:00,59.2,44.8,30.27,NNE,27,4.0,6.0,59,0.00,,,0.00,0611,Weather View 32 v70,2013-02-22 19:45:00,
2013-02-22 11:50:00,59.6,44.8,30.27,South,184,1.0,6.0,58,0.00,,,0.00,0614,Weather View 32 v70,2013-02-22 19:50:00,
2013-02-22 11:55:00,59.7,44.9,30.27,SSE,162,1.0,6.0,58,0.00,,,0.00,0617,Weather View 32 v70,2013-02-22 19:55:00,
2013-02-22 12:00:00,59.7,44.9,30.27,ESE,117,3.0,6.0,58,0.00,,,0.00,0624,Weather View 32 v70,2013-02-22 20:00:00,
2013-02-22 12:05:00,59.7,44.9,30.27,ESE,117,1.0,6.0,58,0.00,,,0.00,0637,Weather View 32 v70,2013-02-22 20:05:00,
2013-02-22 12:15:00,60.4,45.1,30.26,ESE,117,3.0,6.0,57,0.00,,,0.00,0633,Weather View 32 v70,2013-02-22 20:15:00,
2013-02-22 12:20:00,60.5,44.7,30.26,NNE,27,3.0,6.0,56,0.00,,,0.00,0627,Weather View 32 v70,2013-02-22 20:20:00,
2013-02-22 12:25:00,61.2,45.3,30.26,South,184,1.0,6.0,56,0.00,,,0.00,0618,Weather View 32 v70,2013-02-22 20:25:00,
2013-02-22 12:35:00,62.1,45.7,30.26,NE,49,4.0,6.0,55,0.00,,,0.00,0617,Weather View 32 v70,2013-02-22 20:35:00,
2013-02-22 12:40:00,62.2,45.8,30.26,East,94,3.0,6.0,55,0.00,,,0.00,0614,Weather View 32 v70,2013-02-22 20:40:00,
2013-02-22 12:45:00,62.2,46.3,30.25,SW,229,1.0,6.0,56,0.00,,,0.00,0613,Weather View 32 v70,2013-02-22 20:45:00,
2013-02-22 12:50:00,62.3,46.4,30.25,NW,319,4.0,6.0,56,0.00,,,0.00,0610,Weather View 32 v70,2013-02-22 20:50:00,
2013-02-22 12:55:00,61.5,46.5,30.25,ESE,117,2.0,9.0,58,0.00,,,0.00,0626,Weather View 32 v70,2013-02-22 20:55:00,
2013-02-22 13:05:00,62.2,47.7,30.25,WNW,297,4.0,9.0,59,0.00,,,0.00,0605,Weather View 32 v70,2013-02-22 21:05:00,
2013-02-22 13:10:00,62.4,47.8,30.24,West,274,3.0,9.0,59,0.00,,,0.00,0603,Weather View 32 v70,2013-02-22 21:10:00,
2013-02-22 13:15:00,62.6,48.0,30.24,West,274,3.0,9.0,59,0.00,,,0.00,0599,Weather View 32 v70,2013-02-22 21:15:00,
2013-02-22 13:20:00,62.2,47.7,30.24,West,274,4.0,11.0,59,0.00,,,0.00,0597,Weather View 32 v70,2013-02-22 21:20:00,
2013-02-22 13:25:00,61.9,47.4,30.24,SW,229,6.0,12.0,59,0.00,,,0.00,0591,Weather View 32 v70,2013-02-22 21:25:00,
2013-02-22 13:30:00,61.4,47.4,30.24,NNW,342,4.0,12.0,60,0.00,,,0.00,0586,Weather View 32 v70,2013-02-22 21:30:00,
2013-02-22 13:40:00,61.5,47.9,30.23,SSW,207,9.0,12.0,61,0.00,,,0.00,0575,Weather View 32 v70,2013-02-22 21:40:00,
2013-02-22 13:45:00,61.3,47.7,30.23,SSW,207,8.0,12.0,61,0.00,,,0.00,0570,Weather View 32 v70,2013-02-22 21:45:00,
2013-02-22 13:50:00,61.8,48.6,30.23,East,94,2.0,12.0,62,0.00,,,0.00,0567,Weather View 32 v70,2013-02-22 21:50:00,
2013-02-22 14:00:00,62.2,48.1,30.22,NW,319,2.0,12.0,60,0.00,,,0.00,0552,Weather View 32 v70,2013-02-22 22:00:00,
2013-02-22 14:05:00,61.8,46.8,30.22,SSW,207,7.0,12.0,58,0.00,,,0.00,0540,Weather View 32 v70,2013-02-22 22:05:00,
2013-02-22 14:10:00,61.5,47.5,30.22,SSW,207,7.0,12.0,60,0.00,,,0.00,0538,Weather View 32 v70,2013-02-22 22:10:00,
2013-02-22 14:15:00,61.3,46.4,30.22,WNW,297,6.0,12.0,58,0.00,,,0.00,0533,Weather View 32 v70,2013-02-22 22:15:00,
2013-02-22 14:20:00,61.6,47.1,30.22,West,274,4.0,12.0,59,0.00,,,0.00,0525,Weather View 32 v70,2013-02-22 22:20:00,
2013-02-22 14:30:00,62.1,46.6,30.22,North,4,3.0,11.0,57,0.00,,,0.00,0508,Weather View 32 v70,2013-02-22 22:30:00,
2013-02-22 14:35:00,62.3,46.4,30.21,West,274,4.0,11.0,56,0.00,,,0.00,0500,Weather View 32 v70,2013-02-22 22:35:00,
2013-02-22 14:40:00,61.7,44.8,30.21,NW,319,8.0,11.0,54,0.00,,,0.00,0491,Weather View 32 v70,2013-02-22 22:40:00,
2013-02-22 14:45:00,62.0,45.6,30.21,West,274,4.0,11.0,55,0.00,,,0.00,0477,Weather View 32 v70,2013-02-22 22:45:00,
2013-02-22 14:55:00,61.2,45.8,30.21,West,274,6.0,12.0,57,0.00,,,0.00,0464,Weather View 32 v70,2013-02-22 22:55:00,
2013-02-22 15:00:00,61.4,46.9,30.22,West,274,4.0,12.0,59,0.00,,,0.00,0455,Weather View 32 v70,2013-02-22 23:00:00,
2013-02-22 15:05:00,61.7,47.6,30.22,West,274,6.0,12.0,60,0.00,,,0.00,0447,Weather View 32 v70,2013-02-22 23:05:00,
2013-02-22 15:10:00,61.0,46.5,30.22,West,274,7.0,12.0,59,0.00,,,0.00,0435,Weather View 32 v70,2013-02-22 23:10:00,
2013-02-22 15:15:00,60.8,47.2,30.22,NNW,342,6.0,12.0,61,0.00,,,0.00,0422,Weather View 32 v70,2013-02-22 23:15:00,
2013-02-22 15:25:00,61.1,47.1,30.22,SW,229,3.0,12.0,60,0.00,,,0.00,0405,Weather View 32 v70,2013-02-22 23:25:00,
2013-02-22 15:30:00,60.6,45.2,30.22,WSW,252,7.0,15.0,57,0.00,,,0.00,0395,Weather View 32 v70,2013-02-22 23:30:00,
2013-02-22 15:35:00,60.4,44.6,30.22,NNW,342,4.0,15.0,56,0.00,,,0.00,0385,Weather View 32 v70,2013-02-22 23:35:00,
2013-02-22 15:45:00,60.5,44.2,30.21,SSW,207,3.0,15.0,55,0.00,,,0.00,0333,Weather View 32 v70,2013-02-22 23:45:00,
2013-02-22 15:50:00,60.3,42.6,30.21,SW,229,7.0,15.0,52,0.00,,,0.00,0340,Weather View 32 v70,2013-02-22 23:50:00,
2013-02-22 15:55:00,60.4,42.7,30.21,SSW,207,6.0,15.0,52,0.00,,,0.00,0338,Weather View 32 v70,2013-02-22 23:55:00,
2013-02-22 16:00:00,60.4,42.7,30.21,WSW,252,6.0,15.0,52,0.00,,,0.00,0336,Weather View 32 v70,2013-02-23 00:00:00,
2013-02-22 16:05:00,60.4,42.7,30.21,WSW,252,4.0,15.0,52,0.00,,,0.00,0322,Weather View 32 v70,2013-02-23 00:05:00,
2013-02-22 16:10:00,60.1,42.4,30.21,SW,229,7.0,15.0,52,0.00,,,0.00,0312,Weather View 32 v70,2013-02-23 00:10:00,
2013-02-22 16:20:00,59.0,41.4,30.22,NW,319,5.0,15.0,52,0.00,,,0.00,0287,Weather View 32 v70,2013-02-23 00:20:00,
2013-02-22 16:25:00,58.6,42.0,30.22,NW,319,8.0,15.0,54,0.00,,,0.00,0273,Weather View 32 v70,2013-02-23 00:25:00,
2013-02-22 16:30:00,59.0,42.3,30.22,WNW,297,3.0,15.0,54,0.00,,,0.00,0227,Weather View 32 v70,2013-02-23 00:30:00,
2013-02-22 16:40:00,57.9,42.3,30.22,North,4,5.0,14.0,56,0.00,,,0.00,0192,Weather View 32 v70,2013-02-23 00:40:00,
2013-02-22 16:45:00,57.1,42.4,30.22,WNW,297,7.0,14.0,58,0.00,,,0.00,0037,Weather View 32 v70,2013-02-23 00:45:00,
2013-02-22 16:55:00,56.6,42.8,30.21,NE,49,2.0,14.0,60,0.00,,,0.00,0032,Weather View 32 v70,2013-02-23 00:55:00,
2013-02-22 17:00:00,56.7,42.5,30.21,SSW,207,1.0,14.0,59,0.00,,,0.00,0031,Weather View 32 v70,2013-02-23 01:00:00,
2013-02-22 17:10:00,56.0,41.8,30.22,ENE,72,1.0,14.0,59,0.00,,,0.00,0028,Weather View 32 v70,2013-02-23 01:10:00,
2013-02-22 17:15:00,56.0,41.8,30.22,East,94,1.0,14.0,59,0.00,,,0.00,0027,Weather View 32 v70,2013-02-23 01:15:00,
2013-02-22 17:20:00,55.5,41.4,30.22,South,184,3.0,14.0,59,0.00,,,0.00,0026,Weather View 32 v70,2013-02-23 01:20:00,
2013-02-22 17:25:00,55.4,40.8,30.22,SSW,207,1.0,14.0,58,0.00,,,0.00,0021,Weather View 32 v70,2013-02-23 01:25:00,
2013-02-22 17:30:00,55.0,40.5,30.22,North,4,6.0,11.0,58,0.00,,,0.00,0019,Weather View 32 v70,2013-02-23 01:30:00,
2013-02-22 17:40:00,55.1,40.6,30.21,ESE,117,1.0,11.0,58,0.00,,,0.00,0015,Weather View 32 v70,2013-02-23 01:40:00,
2013-02-22 17:45:00,54.9,40.8,30.21,ESE,117,2.0,11.0,59,0.00,,,0.00,0012,Weather View 32 v70,2013-02-23 01:45:00,
2013-02-22 17:55:00,54.2,40.6,30.21,SSE,162,3.0,8.0,60,0.00,,,0.00,0004,Weather View 32 v70,2013-02-23 01:55:00,
2013-02-22 18:00:00,53.9,41.2,30.21,South,184,0.0,8.0,62,0.00,,,0.00,0003,Weather View 32 v70,2013-02-23 02:00:00,
2013-02-22 18:05:00,52.3,40.5,30.21,West,274,2.0,8.0,64,0.00,,,0.00,0002,Weather View 32 v70,2013-02-23 02:05:00,
2013-02-22 18:10:00,51.8,41.2,30.22,South,184,1.0,8.0,67,0.00,,,0.00,0002,Weather View 32 v70,2013-02-23 02:10:00,
2013-02-22 18:15:00,51.0,41.2,30.22,WSW,252,1.0,8.0,69,0.00,,,0.00,0002,Weather View 32 v70,2013-02-23 02:15:00,
2013-02-22 18:25:00,50.3,41.2,30.22,ESE,117,0.0,6.0,71,0.00,,,0.00,0002,Weather View 32 v70,2013-02-23 02:25:00,
2013-02-22 18:30:00,50.0,41.3,30.21,South,184,1.0,6.0,72,0.00,,,0.00,0001,Weather View 32 v70,2013-02-23 02:30:00,
2013-02-22 18:40:00,49.8,42.2,30.22,SE,139,1.0,5.0,75,0.00,,,0.00,0001,Weather View 32 v70,2013-02-23 02:40:00,
2013-02-22 18:45:00,50.7,44.1,30.22,ESE,117,3.0,4.0,78,0.00,,,0.00,0001,Weather View 32 v70,2013-02-23 02:45:00,
2013-02-22 18:55:00,51.3,45.7,30.22,WSW,252,1.0,4.0,81,0.00,,,0.00,0001,Weather View 32 v70,2013-02-23 02:55:00,
2013-02-22 19:00:00,50.8,45.5,30.22,East,94,0.0,4.0,82,0.00,,,0.00,0001,Weather View 32 v70,2013-02-23 03:00:00,
2013-02-22 19:05:00,50.2,45.2,30.22,West,274,0.0,4.0,83,0.00,,,0.00,0001,Weather View 32 v70,2013-02-23 03:05:00,
2013-02-22 19:10:00,49.2,44.6,30.22,WNW,297,1.0,4.0,84,0.00,,,0.00,0001,Weather View 32 v70,2013-02-23 03:10:00,
2013-02-22 19:15:00,48.9,44.9,30.23,West,274,2.0,4.0,86,0.00,,,0.00,0001,Weather View 32 v70,2013-02-23 03:15:00,
2013-02-22 19:20:00,48.5,44.8,30.23,WNW,297,1.0,4.0,87,0.00,,,0.00,0001,Weather View 32 v70,2013-02-23 03:20:00,
2013-02-22 19:25:00,48.4,45.3,30.23,SSW,207,0.0,4.0,89,0.00,,,0.00,0002,Weather View 32 v70,2013-02-23 03:25:00,
2013-02-22 19:34:00,48.2,45.4,30.23,WSW,252,1.0,4.0,90,0.00,,,0.00,0002,Weather View 32 v70,2013-02-23 03:34:00,
2013-02-22 19:40:00,49.4,48.3,30.24,ESE,117,3.0,12.0,96,0.00,,,0.00,0001,Weather View 32 v70,2013-02-23 03:40:00,
2013-02-22 19:45:00,49.3,48.8,30.24,NW,319,1.0,12.0,98,0.00,,,0.00,0001,Weather View 32 v70,2013-02-23 03:45:00,
2013-02-22 19:50:00,49.0,49.0,30.24,NNE,27,3.0,12.0,100,0.00,,,0.00,0001,Weather View 32 v70,2013-02-23 03:50:00,
2013-02-22 19:55:00,49.1,49.1,30.24,NNE,27,6.0,12.0,100,0.00,,,0.00,0001,Weather View 32 v70,2013-02-23 03:55:00,
2013-02-22 20:05:00,48.9,48.9,30.24,NE,49,0.0,12.0,100,0.00,,,0.00,0001,Weather View 32 v70,2013-02-23 04:05:00,
2013-02-22 20:10:00,48.5,48.5,30.24,South,184,1.0,12.0,100,0.00,,,0.00,0001,Weather View 32 v70,2013-02-23 04:10:00,
2013-02-22 20:15:00,48.1,48.1,30.24,NW,319,2.0,12.0,100,0.00,,,0.00,0001,Weather View 32 v70,2013-02-23 04:15:00,
2013-02-22 20:20:00,48.2,48.2,30.24,East,94,1.0,12.0,100,0.00,,,0.00,0001,Weather View 32 v70,2013-02-23 04:20:00,
2013-02-22 20:25:00,48.4,48.4,30.25,SSE,162,1.0,12.0,100,0.00,,,0.00,0001,Weather View 32 v70,2013-02-23 04:25:00,
2013-02-22 20:30:00,47.7,47.7,30.24,ESE,117,4.0,12.0,100,0.00,,,0.00,0001,Weather View 32 v70,2013-02-23 04:30:00,
2013-02-22 20:35:00,48.4,48.4,30.23,ESE,117,4.0,12.0,100,0.00,,,0.00,0001,Weather View 32 v70,2013-02-23 04:35:00,
2013-02-22 20:45:00,48.6,48.6,30.23,East,94,3.0,11.0,100,0.00,,,0.00,0001,Weather View 32 v70,2013-02-23 04:45:00,
2013-02-22 20:50:00,49.0,49.0,30.23,ESE,117,4.0,11.0,100,0.00,,,0.00,0002,Weather View 32 v70,2013-02-23 04:50:00,
2013-02-22 21:00:00,48.4,48.4,30.22,SSW,207,5.0,9.0,100,0.00,,,0.00,0001,Weather View 32 v70,2013-02-23 05:00:00,
2013-02-22 21:05:00,48.7,48.7,30.23,SW,229,3.0,9.0,100,0.00,,,0.00,0002,Weather View 32 v70,2013-02-23 05:05:00,
2013-02-22 21:10:00,49.1,49.1,30.22,SW,229,1.0,9.0,100,0.00,,,0.00,0002,Weather View 32 v70,2013-02-23 05:10:00,
2013-02-22 21:15:00,48.9,48.9,30.23,NW,319,3.0,9.0,100,0.00,,,0.00,0001,Weather View 32 v70,2013-02-23 05:15:00,
2013-02-22 21:20:00,48.4,48.4,30.23,NW,319,3.0,9.0,100,0.00,,,0.00,0001,Weather View 32 v70,2013-02-23 05:20:00,
2013-02-22 21:30:00,48.1,48.1,30.25,NNE,27,3.0,9.0,100,0.00,,,0.00,0001,Weather View 32 v70,2013-02-23 05:30:00,
2013-02-22 21:35:00,48.0,48.0,30.25,NNE,27,3.0,9.0,100,0.00,,,0.00,0001,Weather View 32 v70,2013-02-23 05:35:00,
2013-02-22 21:45:00,48.6,48.6,30.26,ESE,117,5.0,7.0,100,0.00,,,0.00,0001,Weather View 32 v70,2013-02-23 05:45:00,
2013-02-22 21:50:00,48.5,48.5,30.26,East,94,5.0,9.0,100,0.00,,,0.00,0001,Weather View 32 v70,2013-02-23 05:50:00,
2013-02-22 21:55:00,48.7,48.7,30.27,ESE,117,1.0,9.0,100,0.00,,,0.00,0002,Weather View 32 v70,2013-02-23 05:55:00,
2013-02-22 22:00:00,48.8,48.8,30.27,SSW,207,3.0,9.0,100,0.00,,,0.00,0001,Weather View 32 v70,2013-02-23 06:00:00,
2013-02-22 22:10:00,48.8,48.8,30.26,ESE,117,4.0,9.0,100,0.00,,,0.00,0001,Weather View 32 v70,2013-02-23 06:10:00,
2013-02-22 22:15:00,48.9,48.9,30.26,South,184,3.0,9.0,100,0.00,,,0.00,0001,Weather View 32 v70,2013-02-23 06:15:00,
2013-02-22 22:20:00,48.9,48.9,30.27,ESE,117,2.0,9.0,100,0.00,,,0.00,0002,Weather View 32 v70,2013-02-23 06:20:00,
2013-02-22 22:25:00,48.9,48.9,30.26,NE,49,3.0,9.0,100,0.00,,,0.00,0002,Weather View 32 v70,2013-02-23 06:25:00,
2013-02-22 22:30:00,48.9,48.9,30.25,East,94,2.0,9.0,100,0.00,,,0.00,0002,Weather View 32 v70,2013-02-23 06:30:00,
2013-02-22 22:35:00,49.0,49.0,30.26,SE,139,1.0,9.0,100,0.00,,,0.00,0001,Weather View 32 v70,2013-02-23 06:35:00,
2013-02-22 22:45:00,49.3,49.3,30.26,East,94,3.0,11.0,100,0.00,,,0.00,0001,Weather View 32 v70,2013-02-23 06:45:00,
2013-02-22 22:50:00,49.3,49.3,30.26,NNE,27,2.0,11.0,100,0.00,,,0.00,0002,Weather View 32 v70,2013-02-23 06:50:00,
2013-02-22 22:55:00,49.3,49.3,30.27,NNE,27,3.0,11.0,100,0.00,,,0.00,0002,Weather View 32 v70,2013-02-23 06:55:00,
2013-02-22 23:00:00,49.3,49.3,30.27,NE,49,3.0,11.0,100,0.00,,,0.00,0002,Weather View 32 v70,2013-02-23 07:00:00,
2013-02-22 23:05:00,49.4,49.4,30.27,ENE,72,0.0,11.0,100,0.00,,,0.00,0001,Weather View 32 v70,2013-02-23 07:05:00,
2013-02-22 23:10:00,49.3,49.3,30.27,NNW,342,3.0,11.0,100,0.00,,,0.00,0002,Weather View 32 v70,2013-02-23 07:10:00,
2013-02-22 23:20:00,49.3,49.3,30.27,NNE,27,1.0,11.0,100,0.00,,,0.00,0001,Weather View 32 v70,2013-02-23 07:20:00,
2013-02-22 23:25:00,49.3,49.3,30.27,South,184,1.0,11.0,100,0.00,,,0.00,0001,Weather View 32 v70,2013-02-23 07:25:00,
2013-02-22 23:30:00,49.2,49.2,30.27,SSW,207,3.0,11.0,100,0.00,,,0.00,0001,Weather View 32 v70,2013-02-23 07:30:00,
2013-02-22 23:35:00,49.2,49.2,30.27,SSW,207,2.0,11.0,100,0.00,,,0.00,0001,Weather View 32 v70,2013-02-23 07:35:00,
2013-02-22 23:40:00,49.3,49.3,30.27,West,274,4.0,12.0,100,0.00,,,0.00,0001,Weather View 32 v70,2013-02-23 07:40:00,
2013-02-22 23:45:00,49.3,49.3,30.27,WNW,297,2.0,12.0,100,0.00,,,0.00,0001,Weather View 32 v70,2013-02-23 07:45:00,
2013-02-22 23:55:00,49.4,49.4,30.27,West,274,3.0,12.0,100,0.00,,,0.00,0001,Weather View 32 v70,2013-02-23 07:55:00,